Observation data for Dora on 08/13/2019      Previous  Date  Next       Current Mesonet Observations  Soil Data  Daily Summary Page  Observations in Plain Language
KDR1 130500Z 33005KT 22/14 A3006 RMK A01 T02220144  RH  064%=      5-min Rain = 0
KDR1 130505Z 35007KT 22/14 A3006 RMK A01 T02240143  RH  063%=      5-min Rain = 0
KDR1 130510Z 36008KT 23/14 A3006 RMK A01 T02270141  RH  061%=      5-min Rain = 0
KDR1 130515Z 36008KT 23/14 A3006 RMK A01 T02300139  RH  059%=      5-min Rain = 0
KDR1 130520Z 36008KT 23/14 A3006 RMK A01 T02330138  RH  057%=      5-min Rain = 0
KDR1 130525Z 36008KT 23/14 A3006 RMK A01 T02320138  RH  058%=      5-min Rain = 0
KDR1 130530Z 01008KT 24/14 A3007 RMK A01 T02350140  RH  058%=      5-min Rain = 0
KDR1 130535Z 00007KT 23/14 A3007 RMK A01 T02330141  RH  059%=      5-min Rain = 0
KDR1 130540Z 00007KT 23/14 A3007 RMK A01 T02300143  RH  060%=      5-min Rain = 0
KDR1 130545Z 36007KT 23/15 A3007 RMK A01 T02270145  RH  062%=      5-min Rain = 0
KDR1 130550Z 01007KT 23/15 A3007 RMK A01 T02250147  RH  064%=      5-min Rain = 0
KDR1 130555Z 02006KT 22/15 A3007 RMK A01 T02240149  RH  065%=      5-min Rain = 0
KDR1 130600Z 02006KT 22/15 A3007 RMK A01 T02240151  RH  066%=      5-min Rain = 0
KDR1 130605Z 01007KT 22/15 A3007 RMK A01 T02220152  RH  067%=      5-min Rain = 0
KDR1 130610Z 01007KT 22/15 A3007 RMK A01 T02210153  RH  068%=      5-min Rain = 0
KDR1 130615Z 03005KT 22/15 A3007 RMK A01 T02190153  RH  069%=      5-min Rain = 0
KDR1 130620Z 03005KT 22/15 A3007 RMK A01 T02160154  RH  071%=      5-min Rain = 0
KDR1 130625Z 03005KT 22/16 A3007 RMK A01 T02150155  RH  072%=      5-min Rain = 0
KDR1 130630Z 04004KT 21/16 A3007 RMK A01 T02140155  RH  072%=      5-min Rain = 0
KDR1 130635Z 05004KT 21/16 A3007 RMK A01 T02130156  RH  073%=      5-min Rain = 0
KDR1 130640Z 05004KT 21/16 A3007 RMK A01 T02110156  RH  074%=      5-min Rain = 0
KDR1 130645Z 05004KT 21/16 A3007 RMK A01 T02090157  RH  075%=      5-min Rain = 0
KDR1 130650Z 05003KT 21/16 A3007 RMK A01 T02080157  RH  076%=      5-min Rain = 0
KDR1 130655Z 05003KT 21/16 A3007 RMK A01 T02060157  RH  077%=      5-min Rain = 0
KDR1 130700Z 05003KT 21/16 A3007 RMK A01 T02050157  RH  078%=      5-min Rain = 0
KDR1 130705Z 05003KT 20/16 A3008 RMK A01 T02030157  RH  078%=      5-min Rain = 0
KDR1 130710Z 05003KT 20/16 A3008 RMK A01 T02030158  RH  079%=      5-min Rain = 0
KDR1 130715Z 06002KT 20/16 A3008 RMK A01 T02030158  RH  079%=      5-min Rain = 0
KDR1 130720Z 07003KT 20/16 A3008 RMK A01 T02030159  RH  079%=      5-min Rain = 0
KDR1 130725Z 07003KT 21/16 A3008 RMK A01 T02050159  RH  078%=      5-min Rain = 0
KDR1 130730Z 08002KT 21/16 A3008 RMK A01 T02060159  RH  078%=      5-min Rain = 0
KDR1 130735Z 07003KT 21/16 A3008 RMK A01 T02050158  RH  078%=      5-min Rain = 0
KDR1 130740Z 07004KT 21/16 A3008 RMK A01 T02060158  RH  078%=      5-min Rain = 0
KDR1 130745Z 07002KT 21/16 A3008 RMK A01 T02050158  RH  078%=      5-min Rain = 0
KDR1 130750Z 06004KT 20/16 A3008 RMK A01 T02020158  RH  079%=      5-min Rain = 0
KDR1 130755Z 05005KT 20/16 A3008 RMK A01 T02020159  RH  080%=      5-min Rain = 0
KDR1 130800Z 05004KT 20/16 A3008 RMK A01 T02000158  RH  081%=      5-min Rain = 0
KDR1 130805Z 05003KT 20/16 A3008 RMK A01 T02000158  RH  081%=      5-min Rain = 0
KDR1 130810Z 01004KT 20/16 A3008 RMK A01 T01960157  RH  082%=      5-min Rain = 0
KDR1 130815Z 03003KT 19/16 A3008 RMK A01 T01930157  RH  083%=      5-min Rain = 0
KDR1 130820Z 03003KT 19/16 A3008 RMK A01 T01920157  RH  084%=      5-min Rain = 0
KDR1 130825Z 05003KT 19/16 A3008 RMK A01 T01920157  RH  084%=      5-min Rain = 0
KDR1 130830Z 03004KT 19/16 A3008 RMK A01 T01910156  RH  084%=      5-min Rain = 0
KDR1 130835Z 03004KT 19/16 A3009 RMK A01 T01880156  RH  085%=      5-min Rain = 0
KDR1 130840Z 03004KT 19/16 A3009 RMK A01 T01860156  RH  086%=      5-min Rain = 0
KDR1 130845Z 02004KT 18/16 A3009 RMK A01 T01840155  RH  087%=      5-min Rain = 0
KDR1 130850Z 03003KT 18/16 A3009 RMK A01 T01830155  RH  088%=      5-min Rain = 0
KDR1 130855Z 05002KT 18/16 A3008 RMK A01 T01830155  RH  088%=      5-min Rain = 0
KDR1 130900Z 04003KT 18/16 A3009 RMK A01 T01830156  RH  088%=      5-min Rain = 0
KDR1 130905Z 04003KT 18/16 A3009 RMK A01 T01840157  RH  088%=      5-min Rain = 0
KDR1 130910Z 05003KT 18/16 A3009 RMK A01 T01840157  RH  088%=      5-min Rain = 0
KDR1 130915Z 05004KT 18/16 A3009 RMK A01 T01830156  RH  088%=      5-min Rain = 0
KDR1 130920Z 04003KT 18/16 A3009 RMK A01 T01820156  RH  089%=      5-min Rain = 0
KDR1 130925Z 05002KT 18/16 A3009 RMK A01 T01820156  RH  089%=      5-min Rain = 0
KDR1 130930Z 05002KT 18/16 A3009 RMK A01 T01810156  RH  089%=      5-min Rain = 0
KDR1 130935Z 06002KT 18/16 A3009 RMK A01 T01800155  RH  089%=      5-min Rain = 0
KDR1 130940Z 07002KT 18/16 A3009 RMK A01 T01790155  RH  090%=      5-min Rain = 0
KDR1 130945Z 04004KT 18/16 A3009 RMK A01 T01780155  RH  090%=      5-min Rain = 0
KDR1 130950Z 02007KT 18/16 A3009 RMK A01 T01780155  RH  090%=      5-min Rain = 0
KDR1 130955Z 02007KT 18/16 A301 RMK A01 T01780155  RH  090%=      5-min Rain = 0
KDR1 131000Z 01006KT 18/16 A301 RMK A01 T01780155  RH  091%=      5-min Rain = 0
KDR1 131005Z 01007KT 18/16 A301 RMK A01 T01780156  RH  091%=      5-min Rain = 0
KDR1 131010Z 01007KT 18/16 A301 RMK A01 T01780156  RH  091%=      5-min Rain = 0
KDR1 131015Z 01007KT 18/16 A301 RMK A01 T01780156  RH  091%=      5-min Rain = 0
KDR1 131020Z 01006KT 18/16 A301 RMK A01 T01770156  RH  091%=      5-min Rain = 0
KDR1 131025Z 01006KT 18/16 A301 RMK A01 T01760155  RH  091%=      5-min Rain = 0
KDR1 131030Z 01006KT 18/16 A301 RMK A01 T01760155  RH  092%=      5-min Rain = 0
KDR1 131035Z 01005KT 18/16 A301 RMK A01 T01750155  RH  092%=      5-min Rain = 0
KDR1 131040Z 36005KT 18/16 A3011 RMK A01 T01750155  RH  092%=      5-min Rain = 0
KDR1 131045Z 35004KT 17/15 A3011 RMK A01 T01740154  RH  092%=      5-min Rain = 0
KDR1 131050Z 35005KT 17/15 A3011 RMK A01 T01730153  RH  092%=      5-min Rain = 0
KDR1 131055Z 36004KT 17/15 A3011 RMK A01 T01720152  RH  093%=      5-min Rain = 0
KDR1 131100Z 36004KT 17/15 A3011 RMK A01 T01710152  RH  093%=      5-min Rain = 0
KDR1 131105Z 00005KT 17/15 A3011 RMK A01 T01700152  RH  093%=      5-min Rain = 0
KDR1 131110Z 01006KT 17/15 A3011 RMK A01 T01700152  RH  093%=      5-min Rain = 0
KDR1 131115Z 01006KT 17/15 A3011 RMK A01 T01710154  RH  094%=      5-min Rain = 0
KDR1 131120Z 00006KT 17/15 A3011 RMK A01 T01720154  RH  094%=      5-min Rain = 0
KDR1 131125Z 01006KT 17/15 A3011 RMK A01 T01710154  RH  094%=      5-min Rain = 0
KDR1 131130Z 01006KT 17/15 A3011 RMK A01 T01710154  RH  094%=      5-min Rain = 0
KDR1 131135Z 02006KT 17/15 A3012 RMK A01 T01700154  RH  094%=      5-min Rain = 0
KDR1 131140Z 01005KT 17/15 A3012 RMK A01 T01700153  RH  094%=      5-min Rain = 0
KDR1 131145Z 01005KT 17/15 A3012 RMK A01 T01690153  RH  094%=      5-min Rain = 0
KDR1 131150Z 01006KT 17/15 A3012 RMK A01 T01690153  RH  094%=      5-min Rain = 0
KDR1 131155Z 00006KT 17/15 A3012 RMK A01 T01690153  RH  094%=      5-min Rain = 0
KDR1 131200Z 36005KT 17/15 A3012 RMK A01 T01690153  RH  094%=      5-min Rain = 0
KDR1 131205Z 36005KT 17/15 A3013 RMK A01 T01690153  RH  095%=      5-min Rain = 0
KDR1 131210Z 00005KT 17/15 A3013 RMK A01 T01690153  RH  095%=      5-min Rain = 0
KDR1 131215Z 00005KT 17/15 A3013 RMK A01 T01690153  RH  095%=      5-min Rain = 0
KDR1 131220Z 01006KT 17/15 A3013 RMK A01 T01680153  RH  095%=      5-min Rain = 0
KDR1 131225Z 01006KT 17/15 A3013 RMK A01 T01690154  RH  095%=      5-min Rain = 0
KDR1 131230Z 01006KT 17/15 A3013 RMK A01 T01700154  RH  095%=      5-min Rain = 0
KDR1 131235Z 02005KT 17/15 A3013 RMK A01 T01690154  RH  095%=      5-min Rain = 0
KDR1 131240Z 02005KT 17/16 A3013 RMK A01 T01710155  RH  095%=      5-min Rain = 0
KDR1 131245Z 02005KT 17/16 A3014 RMK A01 T01720156  RH  095%=      5-min Rain = 0
KDR1 131250Z 02006KT 17/16 A3014 RMK A01 T01720156  RH  095%=      5-min Rain = 0
KDR1 131255Z 02005KT 18/16 A3014 RMK A01 T01750158  RH  094%=      5-min Rain = 0
KDR1 131300Z 02005KT 18/16 A3014 RMK A01 T01780161  RH  094%=      5-min Rain = 0
KDR1 131305Z 02005KT 18/16 A3014 RMK A01 T01800162  RH  093%=      5-min Rain = 0
KDR1 131310Z 03004KT 18/16 A3014 RMK A01 T01830162  RH  092%=      5-min Rain = 0
KDR1 131315Z 03004KT 19/16 A3015 RMK A01 T01850164  RH  091%=      5-min Rain = 0
KDR1 131320Z 02004KT 19/17 A3015 RMK A01 T01890165  RH  090%=      5-min Rain = 0
KDR1 131325Z 02005KT 19/17 A3015 RMK A01 T01900165  RH  089%=      5-min Rain = 0
KDR1 131330Z 01006KT 19/17 A3015 RMK A01 T01920165  RH  089%=      5-min Rain = 0
KDR1 131335Z 02007KT 19/17 A3015 RMK A01 T01940166  RH  088%=      5-min Rain = 0
KDR1 131340Z 02006KT 20/17 A3016 RMK A01 T01960166  RH  087%=      5-min Rain = 0
KDR1 131345Z 02007KT 20/17 A3016 RMK A01 T01970166  RH  086%=      5-min Rain = 0
KDR1 131350Z 03006KT 20/17 A3016 RMK A01 T01990167  RH  086%=      5-min Rain = 0
KDR1 131355Z 04006KT 20/17 A3016 RMK A01 T01980167  RH  086%=      5-min Rain = 0
KDR1 131400Z 04006KT 20/17 A3016 RMK A01 T02000168  RH  086%=      5-min Rain = 0
KDR1 131405Z 03008KT 20/17 A3016 RMK A01 T02000167  RH  086%=      5-min Rain = 0
KDR1 131410Z 04008KT 20/17 A3016 RMK A01 T02000167  RH  085%=      5-min Rain = 0
KDR1 131415Z 04008KT 20/17 A3016 RMK A01 T02040168  RH  084%=      5-min Rain = 0
KDR1 131420Z 05009KT 20/17 A3016 RMK A01 T02040167  RH  083%=      5-min Rain = 0
KDR1 131425Z 05010KT 21/17 A3016 RMK A01 T02050167  RH  083%=      5-min Rain = 0
KDR1 131430Z 05009KT 20/17 A3016 RMK A01 T02040167  RH  083%=      5-min Rain = 0
KDR1 131435Z 04009KT 21/17 A3016 RMK A01 T02050166  RH  082%=      5-min Rain = 0
KDR1 131440Z 04009KT 20/17 A3016 RMK A01 T02040166  RH  083%=      5-min Rain = 0
KDR1 131445Z 04009KT 21/17 A3017 RMK A01 T02100168  RH  081%=      5-min Rain = 0
KDR1 131450Z 03008KT 21/17 A3017 RMK A01 T02080167  RH  081%=      5-min Rain = 0
KDR1 131455Z 03008KT 21/17 A3017 RMK A01 T02140168  RH  079%=      5-min Rain = 0
KDR1 131500Z 05009KT 22/17 A3017 RMK A01 T02210169  RH  076%=      5-min Rain = 0
KDR1 131505Z 05009KT 22/17 A3017 RMK A01 T02220169  RH  075%=      5-min Rain = 0
KDR1 131510Z 03009KT 22/17 A3017 RMK A01 T02230168  RH  075%=      5-min Rain = 0
KDR1 131515Z 03008KT 23/17 A3017 RMK A01 T02260170  RH  074%=      5-min Rain = 0
KDR1 131520Z 02007KT 23/17 A3017 RMK A01 T02310171  RH  072%=      5-min Rain = 0
KDR1 131525Z 03008KT 23/17 A3017 RMK A01 T02340170  RH  071%=      5-min Rain = 0
KDR1 131530Z 03007KT 24/17 A3017 RMK A01 T02400170  RH  068%=      5-min Rain = 0
KDR1 131535Z 00008KT 24/17 A3017 RMK A01 T02410170  RH  068%=      5-min Rain = 0
KDR1 131540Z 00008KT 25/17 A3017 RMK A01 T02450170  RH  066%=      5-min Rain = 0
KDR1 131545Z 02008KT 25/17 A3017 RMK A01 T02470170  RH  066%=      5-min Rain = 0
KDR1 131550Z 02009KT 25/17 A3017 RMK A01 T02500170  RH  064%=      5-min Rain = 0
KDR1 131555Z 01009KT 25/17 A3017 RMK A01 T02540170  RH  063%=      5-min Rain = 0
KDR1 131600Z 02008KT 26/17 A3017 RMK A01 T02590170  RH  061%=      5-min Rain = 0
KDR1 131605Z 03008G14KT 26/17 A3017 RMK A01 T02580170  RH  061%=      5-min Rain = 0
KDR1 131610Z 02009KT 26/17 A3017 RMK A01 T02640170  RH  059%=      5-min Rain = 0
KDR1 131615Z 03008KT 26/17 A3018 RMK A01 T02610168  RH  060%=      5-min Rain = 0
KDR1 131620Z 02009KT 27/17 A3017 RMK A01 T02690169  RH  057%=      5-min Rain = 0
KDR1 131625Z 02008KT 27/17 A3018 RMK A01 T02700169  RH  057%=      5-min Rain = 0
KDR1 131630Z 03009KT 27/17 A3018 RMK A01 T02710168  RH  056%=      5-min Rain = 0
KDR1 131635Z 01009KT 27/17 A3018 RMK A01 T02740169  RH  055%=      5-min Rain = 0
KDR1 131640Z 01009KT 28/16 A3018 RMK A01 T02760164  RH  053%=      5-min Rain = 0
KDR1 131645Z 01010KT 28/16 A3018 RMK A01 T02770162  RH  052%=      5-min Rain = 0
KDR1 131650Z 01009G14KT 28/16 A3018 RMK A01 T02780164  RH  052%=      5-min Rain = 0
KDR1 131655Z 00008KT 28/17 A3018 RMK A01 T02830166  RH  051%=      5-min Rain = 0
KDR1 131700Z 03009G21KT 28/16 A3018 RMK A01 T02840164  RH  051%=      5-min Rain = 0
KDR1 131705Z 03008G24KT 29/17 A3018 RMK A01 T02880166  RH  050%=      5-min Rain = 0
KDR1 131710Z 02009G15KT 29/17 A3018 RMK A01 T02890165  RH  049%=      5-min Rain = 0
KDR1 131715Z 04010G16KT 29/16 A3018 RMK A01 T02870161  RH  049%=      5-min Rain = 0
KDR1 131720Z 04011G16KT 29/16 A3018 RMK A01 T02890161  RH  048%=      5-min Rain = 0
KDR1 131725Z 03010KT 29/16 A3018 RMK A01 T02920161  RH  047%=      5-min Rain = 0
KDR1 131730Z 04011KT 29/16 A3018 RMK A01 T02910158  RH  046%=      5-min Rain = 0
KDR1 131735Z 02011G16KT 29/16 A3018 RMK A01 T02930158  RH  046%=      5-min Rain = 0
KDR1 131740Z 03012G17KT 30/16 A3018 RMK A01 T02960159  RH  045%=      5-min Rain = 0
KDR1 131745Z 05011KT 29/16 A3018 RMK A01 T02930158  RH  046%=      5-min Rain = 0
KDR1 131750Z 04011G16KT 30/16 A3018 RMK A01 T02970161  RH  046%=      5-min Rain = 0
KDR1 131755Z 04011KT 30/16 A3018 RMK A01 T03020158  RH  044%=      5-min Rain = 0
KDR1 131800Z 05012G17KT 30/16 A3018 RMK A01 T03030156  RH  043%=      5-min Rain = 0
KDR1 131805Z 04011KT 30/16 A3018 RMK A01 T03020158  RH  044%=      5-min Rain = 0
KDR1 131810Z 04012KT 31/16 A3018 RMK A01 T03080155  RH  042%=      5-min Rain = 0
KDR1 131815Z 05011G16KT 31/15 A3018 RMK A01 T03050154  RH  042%=      5-min Rain = 0
KDR1 131820Z 05012KT 30/16 A3018 RMK A01 T03030155  RH  043%=      5-min Rain = 0
KDR1 131825Z 05011G16KT 30/15 A3018 RMK A01 T03020154  RH  043%=      5-min Rain = 0
KDR1 131830Z 05011KT 31/16 A3018 RMK A01 T03060155  RH  042%=      5-min Rain = 0
KDR1 131835Z 04012G18KT 31/16 A3018 RMK A01 T03100156  RH  041%=      5-min Rain = 0
KDR1 131840Z 06012KT 31/15 A3018 RMK A01 T03080154  RH  041%=      5-min Rain = 0
KDR1 131845Z 06011G18KT 31/16 A3018 RMK A01 T03060159  RH  043%=      5-min Rain = 0
KDR1 131850Z 06014KT 31/16 A3018 RMK A01 T03120157  RH  041%=      5-min Rain = 0
KDR1 131855Z 08013KT 31/16 A3018 RMK A01 T03110155  RH  041%=      5-min Rain = 0
KDR1 131900Z 07011G18KT 31/16 A3017 RMK A01 T03120157  RH  041%=      5-min Rain = 0
KDR1 131905Z 07011KT 31/15 A3017 RMK A01 T03110152  RH  040%=      5-min Rain = 0
KDR1 131910Z 06010G16KT 31/16 A3017 RMK A01 T03120155  RH  041%=      5-min Rain = 0
KDR1 131915Z 07009G14KT 32/16 A3017 RMK A01 T03160158  RH  040%=      5-min Rain = 0
KDR1 131920Z 07012G17KT 32/15 A3017 RMK A01 T03160153  RH  039%=      5-min Rain = 0
KDR1 131925Z 06010G16KT 32/15 A3017 RMK A01 T03150153  RH  039%=      5-min Rain = 0
KDR1 131930Z 08011KT 32/15 A3017 RMK A01 T03190149  RH  037%=      5-min Rain = 0
KDR1 131935Z 09011KT 32/15 A3017 RMK A01 T03190150  RH  038%=      5-min Rain = 0
KDR1 131940Z 07009G17KT 32/15 A3017 RMK A01 T03180147  RH  037%=      5-min Rain = 0
KDR1 131945Z 06011G16KT 32/15 A3017 RMK A01 T03180153  RH  039%=      5-min Rain = 0
KDR1 131950Z 04009G17KT 32/16 A3017 RMK A01 T03190156  RH  039%=      5-min Rain = 0
KDR1 131955Z 06009G15KT 32/16 A3016 RMK A01 T03230155  RH  038%=      5-min Rain = 0
KDR1 132000Z 07012G17KT 32/15 A3016 RMK A01 T03230153  RH  037%=      5-min Rain = 0
KDR1 132005Z 07009G18KT 32/16 A3016 RMK A01 T03210155  RH  038%=      5-min Rain = 0
KDR1 132010Z 05011G16KT 33/16 A3015 RMK A01 T03270156  RH  037%=      5-min Rain = 0
KDR1 132015Z 06010G15KT 32/16 A3015 RMK A01 T03220155  RH  038%=      5-min Rain = 0
KDR1 132020Z 08010G19KT 33/16 A3015 RMK A01 T03250155  RH  038%=      5-min Rain = 0
KDR1 132025Z 07012G19KT 33/15 A3015 RMK A01 T03250154  RH  037%=      5-min Rain = 0
KDR1 132030Z 09011G16KT 32/15 A3015 RMK A01 T03230152  RH  037%=      5-min Rain = 0
KDR1 132035Z 08010KT 33/15 A3015 RMK A01 T03260152  RH  037%=      5-min Rain = 0
KDR1 132040Z 08010G15KT 33/15 A3015 RMK A01 T03280153  RH  037%=      5-min Rain = 0
KDR1 132045Z 09011G19KT 33/15 A3014 RMK A01 T03280149  RH  036%=      5-min Rain = 0
KDR1 132050Z 11008G13KT 33/15 A3014 RMK A01 T03280147  RH  035%=      5-min Rain = 0
KDR1 132055Z 10011G16KT 34/15 A3014 RMK A01 T03400147  RH  033%=      5-min Rain = 0
KDR1 132100Z 08011KT 34/14 A3014 RMK A01 T03350144  RH  033%=      5-min Rain = 0
KDR1 132105Z 10009G14KT 33/14 A3014 RMK A01 T03310141  RH  033%=      5-min Rain = 0
KDR1 132110Z 08012G18KT 33/14 A3014 RMK A01 T03310140  RH  033%=      5-min Rain = 0
KDR1 132115Z 06009G14KT 33/14 A3013 RMK A01 T03280141  RH  034%=      5-min Rain = 0
KDR1 132120Z 10011G17KT 33/14 A3013 RMK A01 T03310139  RH  033%=      5-min Rain = 0
KDR1 132125Z 08011G19KT 33/14 A3013 RMK A01 T03330138  RH  032%=      5-min Rain = 0
KDR1 132130Z 08009G14KT 34/14 A3013 RMK A01 T03360136  RH  031%=      5-min Rain = 0
KDR1 132135Z 08009G17KT 33/14 A3013 RMK A01 T03320136  RH  032%=      5-min Rain = 0
KDR1 132140Z 08011G17KT 33/13 A3013 RMK A01 T03320134  RH  031%=      5-min Rain = 0
KDR1 132145Z 09007G13KT 33/14 A3012 RMK A01 T03330138  RH  032%=      5-min Rain = 0
KDR1 132150Z 09012G19KT 34/14 A3012 RMK A01 T03360141  RH  032%=      5-min Rain = 0
KDR1 132155Z 08008G14KT 33/14 A3012 RMK A01 T03290139  RH  033%=      5-min Rain = 0
KDR1 132200Z 07011KT 33/14 A3012 RMK A01 T03330142  RH  033%=      5-min Rain = 0
KDR1 132205Z 12010G15KT 34/14 A3012 RMK A01 T03350137  RH  032%=      5-min Rain = 0
KDR1 132210Z 11009G14KT 34/14 A3012 RMK A01 T03350136  RH  031%=      5-min Rain = 0
KDR1 132215Z 11009KT 33/13 A3012 RMK A01 T03340134  RH  031%=      5-min Rain = 0
KDR1 132220Z 09009KT 34/13 A3012 RMK A01 T03350132  RH  031%=      5-min Rain = 0
KDR1 132225Z 06008G17KT 34/13 A3012 RMK A01 T03350129  RH  030%=      5-min Rain = 0
KDR1 132230Z 06010KT 34/12 A3012 RMK A01 T03350122  RH  029%=      5-min Rain = 0
KDR1 132235Z 06010G16KT 34/14 A3012 RMK A01 T03360136  RH  031%=      5-min Rain = 0
KDR1 132240Z 08011G18KT 34/14 A3012 RMK A01 T03370135  RH  031%=      5-min Rain = 0
KDR1 132245Z 07011KT 34/13 A3012 RMK A01 T03350129  RH  030%=      5-min Rain = 0
KDR1 132250Z 06010KT 33/13 A3012 RMK A01 T03330133  RH  031%=      5-min Rain = 0
KDR1 132255Z 06010KT 34/13 A3012 RMK A01 T03350129  RH  030%=      5-min Rain = 0
KDR1 132300Z 05007KT 33/13 A3012 RMK A01 T03330126  RH  030%=      5-min Rain = 0
KDR1 132305Z 09010G15KT 33/13 A3012 RMK A01 T03330128  RH  030%=      5-min Rain = 0
KDR1 132310Z 09010G15KT 33/13 A3012 RMK A01 T03310127  RH  030%=      5-min Rain = 0
KDR1 132315Z 08007G13KT 33/13 A3012 RMK A01 T03300125  RH  030%=      5-min Rain = 0
KDR1 132320Z 07009KT 33/13 A3012 RMK A01 T03330126  RH  030%=      5-min Rain = 0
KDR1 132325Z 06008KT 33/13 A3012 RMK A01 T03330126  RH  030%=      5-min Rain = 0
KDR1 132330Z 05009KT 33/12 A3012 RMK A01 T03340120  RH  028%=      5-min Rain = 0
KDR1 132335Z 07009KT 33/12 A3012 RMK A01 T03310122  RH  029%=      5-min Rain = 0
KDR1 132340Z 06008G13KT 33/13 A3012 RMK A01 T03280125  RH  030%=      5-min Rain = 0
KDR1 132345Z 07008G13KT 33/13 A3011 RMK A01 T03280132  RH  032%=      5-min Rain = 0
KDR1 132350Z 09010G16KT 33/13 A3011 RMK A01 T03270133  RH  032%=      5-min Rain = 0
KDR1 132355Z 11010KT 33/13 A3011 RMK A01 T03260133  RH  032%=      5-min Rain = 0
KDR1 140000Z 11010KT 33/13 A3011 RMK A01 T03270132  RH  032%=      5-min Rain = 0
KDR1 140005Z 10010G16KT 32/13 A301 RMK A01 T03240131  RH  032%=      5-min Rain = 0
KDR1 140010Z 10008G13KT 32/13 A301 RMK A01 T03240130  RH  032%=      5-min Rain = 0
KDR1 140015Z 11010G16KT 33/13 A301 RMK A01 T03250131  RH  032%=      5-min Rain = 0
KDR1 140020Z 11011G17KT 32/13 A301 RMK A01 T03160132  RH  034%=      5-min Rain = 0
KDR1 140025Z 11011KT 31/13 A3011 RMK A01 T03110130  RH  034%=      5-min Rain = 0
KDR1 140030Z 11009KT 31/13 A3011 RMK A01 T03080127  RH  034%=      5-min Rain = 0
KDR1 140035Z 12010KT 31/14 A3011 RMK A01 T03070135  RH  036%=      5-min Rain = 0
KDR1 140040Z 12011KT 31/14 A3011 RMK A01 T03060137  RH  037%=      5-min Rain = 0
KDR1 140045Z 12010KT 31/14 A3012 RMK A01 T03100138  RH  037%=      5-min Rain = 0
KDR1 140050Z 12010KT 31/14 A3012 RMK A01 T03100140  RH  037%=      5-min Rain = 0
KDR1 140055Z 12009KT 31/14 A3012 RMK A01 T03120142  RH  037%=      5-min Rain = 0
KDR1 140100Z 13009KT 31/14 A3012 RMK A01 T03070142  RH  038%=      5-min Rain = 0
KDR1 140105Z 12009KT 31/14 A3012 RMK A01 T03050141  RH  039%=      5-min Rain = 0
KDR1 140110Z 11009KT 31/14 A3013 RMK A01 T03050142  RH  039%=      5-min Rain = 0
KDR1 140115Z 12012KT 30/14 A3013 RMK A01 T03020142  RH  039%=      5-min Rain = 0
KDR1 140120Z 12011KT 30/14 A3013 RMK A01 T03000142  RH  040%=      5-min Rain = 0
KDR1 140125Z 11010KT 30/14 A3013 RMK A01 T02980142  RH  040%=      5-min Rain = 0
KDR1 140130Z 11010KT 30/14 A3013 RMK A01 T02950141  RH  041%=      5-min Rain = 0
KDR1 140135Z 12010KT 29/14 A3013 RMK A01 T02920142  RH  042%=      5-min Rain = 0
KDR1 140140Z 12010KT 29/14 A3013 RMK A01 T02890143  RH  042%=      5-min Rain = 0
KDR1 140145Z 12010KT 29/14 A3013 RMK A01 T02860144  RH  044%=      5-min Rain = 0
KDR1 140150Z 12009KT 28/15 A3013 RMK A01 T02830145  RH  045%=      5-min Rain = 0
KDR1 140155Z 12008KT 28/15 A3014 RMK A01 T02800146  RH  046%=      5-min Rain = 0
KDR1 140200Z 12008KT 28/15 A3014 RMK A01 T02760148  RH  047%=      5-min Rain = 0
KDR1 140205Z 13009KT 28/15 A3014 RMK A01 T02750149  RH  048%=      5-min Rain = 0
KDR1 140210Z 12009KT 28/15 A3015 RMK A01 T02750149  RH  048%=      5-min Rain = 0
KDR1 140215Z 12009KT 27/15 A3015 RMK A01 T02720150  RH  049%=      5-min Rain = 0
KDR1 140220Z 12009KT 27/15 A3015 RMK A01 T02710149  RH  049%=      5-min Rain = 0
KDR1 140225Z 12009KT 27/15 A3015 RMK A01 T02690149  RH  050%=      5-min Rain = 0
KDR1 140230Z 12010KT 27/15 A3015 RMK A01 T02680148  RH  050%=      5-min Rain = 0
KDR1 140235Z 12010KT 27/15 A3015 RMK A01 T02690147  RH  049%=      5-min Rain = 0
KDR1 140240Z 12010KT 27/15 A3016 RMK A01 T02690147  RH  049%=      5-min Rain = 0
KDR1 140245Z 12010KT 27/15 A3016 RMK A01 T02670148  RH  050%=      5-min Rain = 0
KDR1 140250Z 12009KT 27/15 A3016 RMK A01 T02650148  RH  051%=      5-min Rain = 0
KDR1 140255Z 12009KT 26/15 A3017 RMK A01 T02620148  RH  052%=      5-min Rain = 0
KDR1 140300Z 12009KT 26/15 A3017 RMK A01 T02610148  RH  052%=      5-min Rain = 0
KDR1 140305Z 13009KT 26/15 A3017 RMK A01 T02590149  RH  053%=      5-min Rain = 0
KDR1 140310Z 13010KT 26/15 A3017 RMK A01 T02590149  RH  053%=      5-min Rain = 0
KDR1 140315Z 12010KT 26/15 A3017 RMK A01 T02610148  RH  052%=      5-min Rain = 0
KDR1 140320Z 12010KT 26/15 A3018 RMK A01 T02610148  RH  052%=      5-min Rain = 0
KDR1 140325Z 11009KT 26/15 A3018 RMK A01 T02580149  RH  053%=      5-min Rain = 0
KDR1 140330Z 11009KT 26/15 A3019 RMK A01 T02580149  RH  053%=      5-min Rain = 0
KDR1 140335Z 12009KT 26/15 A3019 RMK A01 T02560149  RH  054%=      5-min Rain = 0
KDR1 140340Z 13009KT 26/15 A3019 RMK A01 T02550149  RH  054%=      5-min Rain = 0
KDR1 140345Z 12009KT 25/15 A3019 RMK A01 T02540150  RH  055%=      5-min Rain = 0
KDR1 140350Z 12009KT 25/15 A302 RMK A01 T02530150  RH  055%=      5-min Rain = 0
KDR1 140355Z 12009KT 25/15 A302 RMK A01 T02520150  RH  056%=      5-min Rain = 0
KDR1 140400Z 11008KT 25/15 A302 RMK A01 T02500150  RH  056%=      5-min Rain = 0
KDR1 140405Z 11008KT 25/15 A302 RMK A01 T02480150  RH  057%=      5-min Rain = 0
KDR1 140410Z 12008KT 25/15 A302 RMK A01 T02460150  RH  058%=      5-min Rain = 0
KDR1 140415Z 11008KT 24/15 A302 RMK A01 T02440150  RH  058%=      5-min Rain = 0
KDR1 140420Z 11007KT 24/15 A302 RMK A01 T02430150  RH  059%=      5-min Rain = 0
KDR1 140425Z 11009KT 24/15 A3021 RMK A01 T02440150  RH  058%=      5-min Rain = 0
KDR1 140430Z 11009KT 25/15 A3021 RMK A01 T02450150  RH  058%=      5-min Rain = 0
KDR1 140435Z 11008KT 24/15 A3021 RMK A01 T02430150  RH  058%=      5-min Rain = 0
KDR1 140440Z 11009KT 24/15 A3021 RMK A01 T02430150  RH  059%=      5-min Rain = 0
KDR1 140445Z 11008KT 24/15 A3021 RMK A01 T02420150  RH  059%=      5-min Rain = 0
KDR1 140450Z 11008KT 24/15 A3021 RMK A01 T02410149  RH  059%=      5-min Rain = 0
KDR1 140455Z 11009G14KT 24/15 A3021 RMK A01 T02420149  RH  059%=      5-min Rain = 0

Page generated in 0.0092 seconds.